Time;durP1;ratioP1;P1;durP2;ratioP2;P2;SDS_P1;SDS_P2;PMS_P1;PMS_P2;Temp;Humidity;BMP_temperature;BMP_pressure;BME280_temperature;BME280_humidity;BME280_pressure;Samples;Min_cycle;Max_cycle;Signal;HPM_P1;HPM_P2
2023/03/13 00:00:47;;;;;;;;;;;103.30;2227.20;;;;;;5088574;28;19904;-76
2023/03/13 00:03:12;;;;;;;;;;;128.00;2252.80;;;;;;5090295;28;19904;-83
2023/03/13 00:05:38;;;;;;;;;;;103.30;2227.20;;;;;;5074279;28;20364;-77
2023/03/13 00:08:03;;;;;;;;;;;103.20;2227.20;;;;;;5089861;28;20311;-83
2023/03/13 00:10:29;;;;;;;;;;;103.30;2227.20;;;;;;5072593;28;20006;-78
2023/03/13 00:12:54;;;;;;;;;;;103.30;2227.20;;;;;;5062999;28;19920;-82
2023/03/13 00:15:20;;;;;;;;;;;103.30;2227.20;;;;;;5070679;28;19954;-77
2023/03/13 00:17:45;;;;;;;;;;;103.20;2227.20;;;;;;5082781;28;19913;-83
2023/03/13 00:20:11;;;;;;;;;;;103.10;2227.20;;;;;;5068226;28;19991;-84
2023/03/13 00:22:37;;;;;;;;;;;103.10;2227.20;;;;;;5063542;28;19905;-83
2023/03/13 00:25:02;;;;;;;;;;;102.90;2227.20;;;;;;5072812;28;20335;-81
2023/03/13 00:27:31;;;;;;;;;;;103.00;2227.20;;;;;;5073886;28;20003;-79
2023/03/13 00:29:56;;;;;;;;;;;128.00;2252.80;;;;;;5089683;28;19905;-83
2023/03/13 00:32:22;;;;;;;;;;;102.90;2227.20;;;;;;5089288;28;19905;-84
2023/03/13 00:34:47;;;;;;;;;;;102.70;2227.20;;;;;;5073821;28;19922;-79
2023/03/13 00:37:13;;;;;;;;;;;102.80;2227.20;;;;;;5077137;28;19912;-81
2023/03/13 00:39:39;;;;;;;;;;;102.90;2227.20;;;;;;5076835;28;19912;-78
2023/03/13 00:42:04;;;;;;;;;;;102.90;2227.20;;;;;;5077062;28;19915;-80
2023/03/13 00:44:30;;;;;;;;;;;102.70;2227.20;;;;;;5076728;28;20398;-80
2023/03/13 00:46:55;;;;;;;;;;;102.50;2227.20;;;;;;5093792;28;19962;-77
2023/03/13 00:49:21;;;;;;;;;;;102.40;2227.20;;;;;;5063058;28;19904;-82
2023/03/13 00:51:46;;;;;;;;;;;102.50;2227.20;;;;;;5069475;28;19915;-77
2023/03/13 00:54:12;;;;;;;;;;;102.50;2227.20;;;;;;5063962;28;19911;-76
2023/03/13 00:56:38;;;;;;;;;;;102.50;2227.20;;;;;;5076057;28;19926;-82
2023/03/13 00:59:03;;;;;;;;;;;102.50;2227.20;;;;;;5056423;28;19905;-77
2023/03/13 01:01:30;;;;;;;;;;;102.60;2227.20;;;;;;5057871;28;19912;-77
2023/03/13 01:03:57;;;;;;;;;;;102.60;2227.20;;;;;;5076248;28;19958;-77
2023/03/13 01:06:24;;;;;;;;;;;102.70;2227.20;;;;;;5060533;28;19944;-83
2023/03/13 01:08:50;;;;;;;;;;;102.70;2227.20;;;;;;5075968;28;19905;-77
2023/03/13 01:11:18;;;;;;;;;;;102.70;2227.20;;;;;;5061024;28;19999;-76
2023/03/13 01:13:44;;;;;;;;;;;102.60;2227.20;;;;;;5055855;28;19955;-83
2023/03/13 01:16:14;;;;;;;;;;;102.60;2227.20;;;;;;5069463;28;20345;-83
2023/03/13 01:18:41;;;;;;;;;;;102.70;2227.20;;;;;;5066332;28;19904;-83
2023/03/13 01:21:07;;;;;;;;;;;102.70;2227.20;;;;;;5075783;28;19905;-83
2023/03/13 01:23:32;;;;;;;;;;;102.80;2227.20;;;;;;5076803;28;19904;-84
2023/03/13 01:25:58;;;;;;;;;;;102.90;2227.20;;;;;;5076791;28;19949;-81
2023/03/13 01:28:24;;;;;;;;;;;103.00;2227.20;;;;;;5057936;28;19916;-84
2023/03/13 01:30:50;;;;;;;;;;;102.90;2227.20;;;;;;5067410;28;20461;-80
2023/03/13 01:33:16;;;;;;;;;;;102.90;2227.20;;;;;;5075320;28;19931;-76
2023/03/13 01:35:42;;;;;;;;;;;103.00;2227.20;;;;;;5075774;28;19912;-77
2023/03/13 01:38:07;;;;;;;;;;;103.10;2227.20;;;;;;5079058;28;20367;-84
2023/03/13 01:40:43;;;;;;;;;;;103.10;2227.20;;;;;;5083593;28;19905;-84
2023/03/13 01:43:20;;;;;;;;;;;103.00;2227.20;;;;;;5071927;28;20000;-82
2023/03/13 01:45:48;;;;;;;;;;;102.90;2227.20;;;;;;5070914;28;19975;-77
2023/03/13 01:48:14;;;;;;;;;;;102.70;2227.20;;;;;;5066888;28;19909;-79
2023/03/13 01:50:39;;;;;;;;;;;102.50;2227.20;;;;;;5058455;28;20352;-77
2023/03/13 01:53:05;;;;;;;;;;;77.70;2227.20;;;;;;5063962;28;19908;-80
2023/03/13 01:55:31;;;;;;;;;;;77.60;2227.20;;;;;;5058383;28;19905;-84
2023/03/13 01:57:57;;;;;;;;;;;77.50;2227.20;;;;;;5064542;28;19905;-78
2023/03/13 02:00:24;;;;;;;;;;;77.30;2227.20;;;;;;5069581;28;19927;-83
2023/03/13 02:02:51;;;;;;;;;;;77.40;2227.20;;;;;;5055021;28;19973;-83
2023/03/13 02:05:18;;;;;;;;;;;77.40;2227.20;;;;;;5069071;28;19905;-82
2023/03/13 02:08:04;;;;;;;;;;;77.30;2227.20;;;;;;5054908;28;19913;-78
2023/03/13 02:10:31;;;;;;;;;;;77.20;2227.20;;;;;;5054406;28;19904;-78
2023/03/13 02:12:57;;;;;;;;;;;77.30;2227.20;;;;;;5057958;28;19908;-83
2023/03/13 02:15:24;;;;;;;;;;;77.30;2227.20;;;;;;5066581;28;19955;-77
2023/03/13 02:17:50;;;;;;;;;;;77.30;2227.20;;;;;;5068073;28;19916;-79
2023/03/13 02:20:17;;;;;;;;;;;77.30;2227.20;;;;;;5055200;28;19905;-81
2023/03/13 02:22:42;;;;;;;;;;;77.40;2227.20;;;;;;5071502;28;19904;-84
2023/03/13 02:25:17;;;;;;;;;;;77.60;2227.20;;;;;;5090412;28;19911;-77
2023/03/13 02:27:44;;;;;;;;;;;77.50;2227.20;;;;;;5074961;28;19916;-84
2023/03/13 02:30:10;;;;;;;;;;;77.60;2227.20;;;;;;5074598;28;19905;-81
2023/03/13 02:32:36;;;;;;;;;;;77.50;2227.20;;;;;;5074595;28;19912;-83
2023/03/13 02:35:05;;;;;;;;;;;77.40;2227.20;;;;;;5054627;28;19917;-77
2023/03/13 02:37:31;;;;;;;;;;;77.40;2227.20;;;;;;5067417;28;19955;-81
2023/03/13 02:39:59;;;;;;;;;;;77.40;2227.20;;;;;;5054766;28;19955;-76
2023/03/13 02:42:26;;;;;;;;;;;77.50;2227.20;;;;;;5055646;28;19917;-82
2023/03/13 02:44:52;;;;;;;;;;;77.60;2227.20;;;;;;5074455;28;19909;-77
2023/03/13 02:47:19;;;;;;;;;;;77.70;2227.20;;;;;;5071842;28;19935;-83
2023/03/13 02:49:44;;;;;;;;;;;102.40;2227.20;;;;;;5054422;28;19905;-84
2023/03/13 02:52:16;;;;;;;;;;;102.50;2227.20;;;;;;5056392;28;20325;-77
2023/03/13 02:54:43;;;;;;;;;;;102.70;2227.20;;;;;;5064038;28;19909;-83
2023/03/13 02:57:09;;;;;;;;;;;102.70;2227.20;;;;;;5052624;28;19974;-84
2023/03/13 02:59:34;;;;;;;;;;;102.70;2227.20;;;;;;5065700;28;20368;-76
2023/03/13 03:02:00;;;;;;;;;;;102.70;2227.20;;;;;;5073870;28;20258;-83
2023/03/13 03:04:26;;;;;;;;;;;102.60;2227.20;;;;;;5063962;28;19908;-82
2023/03/13 03:06:51;;;;;;;;;;;102.50;2227.20;;;;;;5067827;28;19913;-84
2023/03/13 03:09:18;;;;;;;;;;;102.50;2227.20;;;;;;5054042;28;20003;-82
2023/03/13 03:11:43;;;;;;;;;;;102.40;2227.20;;;;;;5066733;28;19912;-82
2023/03/13 03:14:10;;;;;;;;;;;77.60;2227.20;;;;;;5067142;28;19909;-76
2023/03/13 03:16:35;;;;;;;;;;;77.50;2227.20;;;;;;5068698;28;19916;-80
2023/03/13 03:19:01;;;;;;;;;;;77.50;2227.20;;;;;;5054271;28;19905;-77
2023/03/13 03:21:27;;;;;;;;;;;77.60;2227.20;;;;;;5074229;28;20005;-82
2023/03/13 03:23:52;;;;;;;;;;;77.60;2227.20;;;;;;5073363;28;20332;-77
2023/03/13 03:26:18;;;;;;;;;;;102.40;2227.20;;;;;;5061459;28;19959;-77
2023/03/13 03:28:44;;;;;;;;;;;102.50;2227.20;;;;;;5065747;28;20012;-77
2023/03/13 03:31:10;;;;;;;;;;;102.50;2227.20;;;;;;5053191;28;20281;-78
2023/03/13 03:33:36;;;;;;;;;;;102.40;2227.20;;;;;;5061209;28;19942;-80
2023/03/13 03:36:03;;;;;;;;;;;102.40;2227.20;;;;;;5061185;28;19905;-78
2023/03/13 03:38:29;;;;;;;;;;;102.60;2227.20;;;;;;5065851;28;19966;-84
2023/03/13 03:40:54;;;;;;;;;;;102.50;2227.20;;;;;;5052730;28;20365;-77
2023/03/13 03:43:20;;;;;;;;;;;102.60;2227.20;;;;;;5062198;28;20361;-83
2023/03/13 03:45:45;;;;;;;;;;;102.50;2227.20;;;;;;5071927;28;19908;-83
2023/03/13 03:48:11;;;;;;;;;;;102.40;2227.20;;;;;;5053114;28;19913;-83
2023/03/13 03:50:37;;;;;;;;;;;102.40;2227.20;;;;;;5070259;28;19987;-83
2023/03/13 03:53:02;;;;;;;;;;;77.70;2227.20;;;;;;5063172;28;19904;-77
2023/03/13 03:55:28;;;;;;;;;;;77.70;2227.20;;;;;;5065345;28;19911;-77
2023/03/13 03:57:53;;;;;;;;;;;77.60;2227.20;;;;;;5053251;28;19904;-83
2023/03/13 04:00:19;;;;;;;;;;;77.50;2227.20;;;;;;5054299;28;19912;-83
2023/03/13 04:02:45;;;;;;;;;;;77.60;2227.20;;;;;;5053037;28;19908;-81
2023/03/13 04:05:11;;;;;;;;;;;77.60;2227.20;;;;;;5070248;28;20361;-77
2023/03/13 04:07:36;;;;;;;;;;;77.70;2227.20;;;;;;5061603;28;19919;-76
2023/03/13 04:10:02;;;;;;;;;;;77.60;2227.20;;;;;;5067151;28;19911;-83
2023/03/13 04:12:28;;;;;;;;;;;77.60;2227.20;;;;;;5064041;28;19915;-83
2023/03/13 04:14:53;;;;;;;;;;;77.70;2227.20;;;;;;5072554;28;19944;-83
2023/03/13 04:17:19;;;;;;;;;;;77.60;2227.20;;;;;;5072738;28;19904;-83
2023/03/13 04:19:44;;;;;;;;;;;77.50;2227.20;;;;;;5072715;28;19908;-83
2023/03/13 04:22:10;;;;;;;;;;;77.40;2227.20;;;;;;5072600;28;20284;-81
2023/03/13 04:24:36;;;;;;;;;;;77.40;2227.20;;;;;;5076457;28;19905;-77
2023/03/13 04:27:02;;;;;;;;;;;77.30;2227.20;;;;;;5065511;28;19919;-77
2023/03/13 04:29:28;;;;;;;;;;;77.30;2227.20;;;;;;5052768;28;20345;-75
2023/03/13 04:31:54;;;;;;;;;;;77.30;2227.20;;;;;;5059532;28;19958;-83
2023/03/13 04:34:19;;;;;;;;;;;77.30;2227.20;;;;;;5058685;28;20387;-77
2023/03/13 04:36:45;;;;;;;;;;;77.20;2227.20;;;;;;5053967;28;20003;-79
2023/03/13 04:39:10;;;;;;;;;;;77.20;2227.20;;;;;;5065790;28;19904;-76
2023/03/13 04:41:36;;;;;;;;;;;77.20;2227.20;;;;;;5060583;28;20395;-77
2023/03/13 04:44:02;;;;;;;;;;;77.20;2227.20;;;;;;5073435;28;20346;-83
2023/03/13 04:46:27;;;;;;;;;;;77.20;2227.20;;;;;;5064298;28;19920;-82
2023/03/13 04:48:53;;;;;;;;;;;77.20;2227.20;;;;;;5054136;28;19965;-83
2023/03/13 04:51:18;;;;;;;;;;;77.10;2227.20;;;;;;5072412;28;19951;-77
2023/03/13 04:53:44;;;;;;;;;;;77.20;2227.20;;;;;;5069065;28;19904;-77
2023/03/13 04:56:10;;;;;;;;;;;77.20;2227.20;;;;;;5062796;28;19905;-84
2023/03/13 04:58:36;;;;;;;;;;;76.90;2227.20;;;;;;5059332;28;19919;-77
2023/03/13 05:01:01;;;;;;;;;;;52.10;2227.20;;;;;;5072255;28;19998;-81
2023/03/13 05:03:27;;;;;;;;;;;52.00;2227.20;;;;;;5058831;28;19911;-79
2023/03/13 05:05:53;;;;;;;;;;;52.00;2227.20;;;;;;5062088;28;19905;-77
2023/03/13 05:08:18;;;;;;;;;;;51.90;2227.20;;;;;;5069280;28;19904;-83
2023/03/13 05:10:44;;;;;;;;;;;52.00;2227.20;;;;;;5072249;28;19993;-83
2023/03/13 05:13:09;;;;;;;;;;;52.10;2227.20;;;;;;5058451;28;19955;-84
2023/03/13 05:15:35;;;;;;;;;;;52.10;2227.20;;;;;;5072443;28;19919;-84
2023/03/13 05:18:00;;;;;;;;;;;76.80;2227.20;;;;;;5071809;28;19936;-83
2023/03/13 05:20:26;;;;;;;;;;;76.80;2227.20;;;;;;5074031;28;19974;-81
2023/03/13 05:22:51;;;;;;;;;;;76.90;2227.20;;;;;;5075742;28;19974;-83
2023/03/13 05:25:17;;;;;;;;;;;76.80;2227.20;;;;;;5090570;28;20315;-83
2023/03/13 05:27:42;;;;;;;;;;;76.80;2227.20;;;;;;5063727;28;20285;-83
2023/03/13 05:30:08;;;;;;;;;;;76.80;2227.20;;;;;;5068936;28;19905;-84
2023/03/13 05:32:34;;;;;;;;;;;76.80;2227.20;;;;;;5067987;28;19908;-76
2023/03/13 05:34:59;;;;;;;;;;;76.80;2227.20;;;;;;5061941;28;20015;-84
2023/03/13 05:37:25;;;;;;;;;;;76.80;2227.20;;;;;;5075850;28;19904;-77
2023/03/13 05:39:52;;;;;;;;;;;76.80;2227.20;;;;;;5056603;28;19921;-83
2023/03/13 05:42:17;;;;;;;;;;;76.80;2227.20;;;;;;5055240;28;19911;-77
2023/03/13 05:44:43;;;;;;;;;;;76.80;2227.20;;;;;;5055150;28;19908;-78
2023/03/13 05:47:09;;;;;;;;;;;76.80;2227.20;;;;;;5055278;28;19913;-77
2023/03/13 05:49:34;;;;;;;;;;;52.10;2227.20;;;;;;5056448;28;19905;-83
2023/03/13 05:52:00;;;;;;;;;;;52.10;2227.20;;;;;;5070771;28;20292;-76
2023/03/13 05:54:25;;;;;;;;;;;76.80;2227.20;;;;;;5075327;28;20379;-83
2023/03/13 05:56:51;;;;;;;;;;;76.80;2227.20;;;;;;5075512;28;19911;-77
2023/03/13 05:59:16;;;;;;;;;;;76.80;2227.20;;;;;;5091921;28;19905;-83
2023/03/13 06:01:42;;;;;;;;;;;76.80;2227.20;;;;;;5075574;28;19912;-77
2023/03/13 06:04:08;;;;;;;;;;;76.80;2227.20;;;;;;5092450;28;20368;-84
2023/03/13 06:06:33;;;;;;;;;;;76.80;2227.20;;;;;;5074915;28;19931;-83
2023/03/13 06:08:59;;;;;;;;;;;76.90;2227.20;;;;;;5076352;28;19958;-84
2023/03/13 06:11:24;;;;;;;;;;;77.00;2227.20;;;;;;5076035;28;19954;-82
2023/03/13 06:13:50;;;;;;;;;;;77.10;2227.20;;;;;;5076028;28;19909;-76
2023/03/13 06:16:16;;;;;;;;;;;77.20;2227.20;;;;;;5076325;28;20280;-78
2023/03/13 06:18:41;;;;;;;;;;;77.30;2227.20;;;;;;5076221;28;19912;-84
2023/03/13 06:21:07;;;;;;;;;;;77.40;2227.20;;;;;;5076149;28;19957;-80
2023/03/13 06:23:32;;;;;;;;;;;77.40;2227.20;;;;;;5076038;28;19974;-79
2023/03/13 06:25:59;;;;;;;;;;;77.50;2227.20;;;;;;5091150;28;19911;-77
2023/03/13 06:28:24;;;;;;;;;;;77.50;2227.20;;;;;;5074623;28;20315;-80
2023/03/13 06:30:50;;;;;;;;;;;77.50;2227.20;;;;;;5071671;28;19909;-84
2023/03/13 06:33:16;;;;;;;;;;;77.50;2227.20;;;;;;5064782;28;19916;-78
2023/03/13 06:35:41;;;;;;;;;;;77.60;2227.20;;;;;;5057841;28;20353;-77
2023/03/13 06:38:08;;;;;;;;;;;77.60;2227.20;;;;;;5054487;28;19995;-77
2023/03/13 06:40:33;;;;;;;;;;;77.60;2227.20;;;;;;5071738;28;19926;-78
2023/03/13 06:42:59;;;;;;;;;;;77.70;2227.20;;;;;;5075268;28;19904;-79
2023/03/13 06:45:24;;;;;;;;;;;102.40;2227.20;;;;;;5075462;28;20139;-78
2023/03/13 06:47:51;;;;;;;;;;;102.60;2227.20;;;;;;5075265;28;19919;-79
2023/03/13 06:50:16;;;;;;;;;;;102.70;2227.20;;;;;;5074125;28;20284;-81
2023/03/13 06:52:42;;;;;;;;;;;102.90;2227.20;;;;;;5057580;28;19905;-76
2023/03/13 06:55:08;;;;;;;;;;;103.00;2227.20;;;;;;5063185;28;19915;-79
2023/03/13 06:57:34;;;;;;;;;;;128.30;2252.80;;;;;;5073584;28;19905;-77
2023/03/13 06:59:59;;;;;;;;;;;128.00;2252.80;;;;;;5090660;28;20288;-75
2023/03/13 07:02:25;;;;;;;;;;;128.10;2252.80;;;;;;5074406;28;19915;-77
2023/03/13 07:04:50;;;;;;;;;;;128.10;2252.80;;;;;;5074607;28;19916;-77
2023/03/13 07:07:16;;;;;;;;;;;128.20;2252.80;;;;;;5074564;28;20007;-76
2023/03/13 07:09:41;;;;;;;;;;;128.30;2252.80;;;;;;5090427;28;19904;-80
2023/03/13 07:12:07;;;;;;;;;;;128.40;2252.80;;;;;;5073308;28;19911;-77
2023/03/13 07:14:32;;;;;;;;;;;128.70;2252.80;;;;;;5073879;28;19912;-76
2023/03/13 07:16:58;;;;;;;;;;;128.90;2252.80;;;;;;5089889;28;19991;-77
2023/03/13 07:19:24;;;;;;;;;;;153.70;2252.80;;;;;;5074670;28;19904;-81
2023/03/13 07:21:51;;;;;;;;;;;153.70;2252.80;;;;;;5074862;28;19950;-76
2023/03/13 07:24:16;;;;;;;;;;;154.00;2252.80;;;;;;5073736;28;19904;-76
2023/03/13 07:26:42;;;;;;;;;;;154.20;2252.80;;;;;;5089820;28;19912;-76
2023/03/13 07:29:07;;;;;;;;;;;154.40;2252.80;;;;;;5074403;28;19905;-78
2023/03/13 07:31:34;;;;;;;;;;;179.20;2252.80;;;;;;5074426;28;20342;-75
2023/03/13 07:33:59;;;;;;;;;;;179.30;2252.80;;;;;;5072945;28;19923;-75
2023/03/13 07:36:25;;;;;;;;;;;179.40;2252.80;;;;;;5074413;28;19908;-76
2023/03/13 07:38:51;;;;;;;;;;;179.60;2252.80;;;;;;5089865;28;19912;-76
2023/03/13 07:41:17;;;;;;;;;;;179.70;2252.80;;;;;;5072676;28;20019;-76
2023/03/13 07:43:43;;;;;;;;;;;179.80;2252.80;;;;;;5072668;28;19908;-78
2023/03/13 07:46:10;;;;;;;;;;;179.90;2252.80;;;;;;5072894;28;20277;-83
2023/03/13 07:48:37;;;;;;;;;;;180.00;2252.80;;;;;;5060272;28;19917;-78
2023/03/13 07:51:04;;;;;;;;;;;180.10;2252.80;;;;;;5072476;28;19969;-85
2023/03/13 07:53:29;;;;;;;;;;;204.80;2252.80;;;;;;5089700;28;19912;-76
2023/03/13 07:55:57;;;;;;;;;;;204.80;2252.80;;;;;;5072649;28;19908;-81
2023/03/13 07:58:23;;;;;;;;;;;204.90;2252.80;;;;;;5089794;28;19904;-80
2023/03/13 08:00:49;;;;;;;;;;;205.00;2252.80;;;;;;5073002;28;20349;-79
2023/03/13 08:03:14;;;;;;;;;;;205.10;2252.80;;;;;;5073998;28;19904;-81
2023/03/13 08:05:40;;;;;;;;;;;205.10;2252.80;;;;;;5073150;28;19954;-84
2023/03/13 08:08:06;;;;;;;;;;;205.20;2252.80;;;;;;5074058;28;19923;-77
2023/03/13 08:10:31;;;;;;;;;;;205.00;2252.80;;;;;;5089548;28;20007;-82
2023/03/13 08:12:57;;;;;;;;;;;205.00;2252.80;;;;;;5069753;28;19935;-76
2023/03/13 08:15:25;;;;;;;;;;;205.10;2252.80;;;;;;5062316;28;19915;-77
2023/03/13 08:17:51;;;;;;;;;;;205.00;2252.80;;;;;;5072493;28;20014;-81
2023/03/13 08:20:17;;;;;;;;;;;205.00;2252.80;;;;;;5072238;28;19911;-82
2023/03/13 08:22:45;;;;;;;;;;;205.00;2252.80;;;;;;5072631;28;20005;-84
2023/03/13 08:25:11;;;;;;;;;;;205.20;2252.80;;;;;;5072377;28;20357;-83
2023/03/13 08:27:37;;;;;;;;;;;205.10;2252.80;;;;;;5072436;28;20383;-78
2023/03/13 08:30:02;;;;;;;;;;;205.20;2252.80;;;;;;5073907;28;19904;-80
2023/03/13 08:32:28;;;;;;;;;;;205.20;2252.80;;;;;;5089345;28;20485;-81
2023/03/13 08:34:53;;;;;;;;;;;205.30;2252.80;;;;;;5072352;28;19923;-79
2023/03/13 08:37:19;;;;;;;;;;;205.30;2252.80;;;;;;5082997;28;20022;-77
2023/03/13 08:39:44;;;;;;;;;;;205.30;2252.80;;;;;;5072586;28;19904;-82
2023/03/13 08:42:13;;;;;;;;;;;205.40;2252.80;;;;;;5073594;28;19958;-76
2023/03/13 08:44:38;;;;;;;;;;;205.40;2252.80;;;;;;5073726;28;19909;-85
2023/03/13 08:47:07;;;;;;;;;;;205.50;2252.80;;;;;;5072824;28;19914;-78
2023/03/13 08:49:33;;;;;;;;;;;205.60;2176.00;;;;;;5072755;28;19948;-81
2023/03/13 08:51:59;;;;;;;;;;;205.70;2252.80;;;;;;5063727;28;20357;-82
2023/03/13 08:54:25;;;;;;;;;;;205.70;2227.20;;;;;;5064489;28;20284;-84
2023/03/13 08:56:50;;;;;;;;;;;230.40;2252.80;;;;;;5056927;28;19905;-77
2023/03/13 08:59:16;;;;;;;;;;;230.40;2201.60;;;;;;5056318;28;19913;-77
2023/03/13 09:01:41;;;;;;;;;;;230.60;2227.20;;;;;;5062420;28;20426;-82
2023/03/13 09:04:07;;;;;;;;;;;230.60;2176.00;;;;;;5075884;28;20311;-77
2023/03/13 09:06:33;;;;;;;;;;;230.70;2252.80;;;;;;5067682;28;20360;-80
2023/03/13 09:09:00;;;;;;;;;;;230.80;2150.40;;;;;;5056399;28;19992;-76
2023/03/13 09:11:25;;;;;;;;;;;230.90;2150.40;;;;;;5064679;28;19919;-79
2023/03/13 09:13:51;;;;;;;;;;;231.00;2124.80;;;;;;5076861;28;19960;-76
2023/03/13 09:16:20;;;;;;;;;;;231.00;2073.60;;;;;;5076719;28;20315;-76
2023/03/13 09:18:47;;;;;;;;;;;231.10;2124.80;;;;;;5075504;28;19913;-77
2023/03/13 09:21:14;;;;;;;;;;;231.10;2099.20;;;;;;5075692;28;20387;-77
2023/03/13 09:23:39;;;;;;;;;;;231.30;2201.60;;;;;;5077001;28;19905;-79
2023/03/13 09:26:05;;;;;;;;;;;231.30;2176.00;;;;;;5075230;28;19908;-77
2023/03/13 09:28:32;;;;;;;;;;;256.10;2099.20;;;;;;5074992;28;19926;-76
2023/03/13 09:31:08;;;;;;;;;;;231.30;2073.60;;;;;;5075424;28;20245;-77
2023/03/13 09:33:34;;;;;;;;;;;256.00;2124.80;;;;;;5076479;28;19916;-79
2023/03/13 09:35:59;;;;;;;;;;;256.00;2022.40;;;;;;5092311;28;19927;-76
2023/03/13 09:38:26;;;;;;;;;;;231.30;1996.80;;;;;;5074921;28;19908;-78
2023/03/13 09:40:52;;;;;;;;;;;256.00;2022.40;;;;;;5067933;28;19916;-76
2023/03/13 09:43:21;;;;;;;;;;;256.10;2022.40;;;;;;5068646;28;19908;-76
2023/03/13 09:45:49;;;;;;;;;;;256.40;1996.80;;;;;;5074932;28;19909;-79
2023/03/13 09:48:28;;;;;;;;;;;256.50;1920.00;;;;;;5080372;28;20391;-79
2023/03/13 09:51:06;;;;;;;;;;;256.60;1945.60;;;;;;5066437;28;20272;-79
2023/03/13 09:53:41;;;;;;;;;;;256.80;1920.00;;;;;;5073953;28;19908;-81
2023/03/13 09:56:11;;;;;;;;;;;256.90;1945.60;;;;;;5074878;28;20323;-77
2023/03/13 09:58:40;;;;;;;;;;;281.70;1971.20;;;;;;5074832;28;19911;-78
2023/03/13 10:01:08;;;;;;;;;;;281.70;1945.60;;;;;;5069366;28;19919;-76
2023/03/13 10:03:39;;;;;;;;;;;282.00;1920.00;;;;;;5054757;28;19908;-76
2023/03/13 10:06:15;;;;;;;;;;;282.00;1792.00;;;;;;5074419;28;19905;-78
2023/03/13 10:08:40;;;;;;;;;;;282.00;1766.40;;;;;;5075719;28;19951;-77
2023/03/13 10:11:25;;;;;;;;;;;282.30;1817.60;;;;;;5080604;28;19911;-78
2023/03/13 10:14:26;;;;;;;;;;;282.50;1766.40;;;;;;5075602;28;20330;-76
2023/03/13 10:17:03;;;;;;;;;;;307.30;1766.40;;;;;;5033644;28;20385;-75
2023/03/13 10:19:36;;;;;;;;;;;307.50;1792.00;;;;;;5034094;28;19915;-77
2023/03/13 10:22:07;;;;;;;;;;;307.60;1715.20;;;;;;5016964;28;20004;-77
2023/03/13 10:24:38;;;;;;;;;;;307.60;1664.00;;;;;;5033792;28;19912;-77
2023/03/13 10:27:03;;;;;;;;;;;307.80;1664.00;;;;;;5033094;28;19913;-76
2023/03/13 10:29:30;;;;;;;;;;;307.90;1638.40;;;;;;5033877;28;19931;-78
2023/03/13 10:32:03;;;;;;;;;;;307.80;1638.40;;;;;;5033616;28;20435;-77
2023/03/13 10:34:47;;;;;;;;;;;307.80;1638.40;;;;;;5033368;28;19951;-78
2023/03/13 10:37:14;;;;;;;;;;;307.80;1587.20;;;;;;5013486;28;19921;-76
2023/03/13 10:39:40;;;;;;;;;;;308.00;1612.80;;;;;;5012761;28;19905;-76
2023/03/13 10:42:12;;;;;;;;;;;332.90;1612.80;;;;;;5032969;28;20344;-76
2023/03/13 10:44:38;;;;;;;;;;;333.00;1612.80;;;;;;5032910;28;19909;-75
2023/03/13 10:47:05;;;;;;;;;;;333.10;1561.60;;;;;;5033169;28;19913;-77
2023/03/13 10:49:31;;;;;;;;;;;333.20;1536.00;;;;;;5016275;28;19972;-77
2023/03/13 10:52:01;;;;;;;;;;;333.20;1536.00;;;;;;5071122;28;19908;-77
2023/03/13 10:54:29;;;;;;;;;;;333.30;1459.20;;;;;;5057687;28;19932;-76
2023/03/13 10:57:09;;;;;;;;;;;333.60;1459.20;;;;;;5064518;28;19905;-77
2023/03/13 10:59:39;;;;;;;;;;;333.50;1408.00;;;;;;5076619;28;19904;-76
2023/03/13 11:02:19;;;;;;;;;;;333.60;1382.40;;;;;;5074108;28;19908;-76
2023/03/13 11:04:48;;;;;;;;;;;333.60;1433.60;;;;;;5070020;28;19931;-76
2023/03/13 11:07:34;;;;;;;;;;;358.50;1408.00;;;;;;5054522;28;20060;-76
2023/03/13 11:10:01;;;;;;;;;;;358.70;1382.40;;;;;;5059889;28;19911;-76
2023/03/13 11:12:27;;;;;;;;;;;359.00;1356.80;;;;;;5061131;28;19932;-76
2023/03/13 11:14:59;;;;;;;;;;;358.90;1356.80;;;;;;5069130;28;20302;-76
2023/03/13 11:17:39;;;;;;;;;;;358.90;1356.80;;;;;;5063735;28;19919;-77
2023/03/13 11:20:07;;;;;;;;;;;359.30;1356.80;;;;;;5054202;28;19964;-76
2023/03/13 11:22:39;;;;;;;;;;;384.00;1331.20;;;;;;5083033;28;19904;-76
2023/03/13 11:25:07;;;;;;;;;;;359.30;1280.00;;;;;;5072545;28;19908;-79
2023/03/13 11:27:54;;;;;;;;;;;359.30;1305.60;;;;;;5077885;28;19999;-77
2023/03/13 11:30:31;;;;;;;;;;;384.40;1305.60;;;;;;5073932;28;19904;-78
2023/03/13 11:33:04;;;;;;;;;;;384.50;1331.20;;;;;;5072325;28;19904;-77
2023/03/13 11:35:29;;;;;;;;;;;384.50;1331.20;;;;;;5065351;28;19904;-77
2023/03/13 11:37:56;;;;;;;;;;;384.90;1331.20;;;;;;5054189;28;19970;-80
2023/03/13 11:40:36;;;;;;;;;;;384.90;1305.60;;;;;;5061679;28;19911;-78
2023/03/13 11:43:01;;;;;;;;;;;384.80;1280.00;;;;;;5072763;28;19923;-78
2023/03/13 11:45:38;;;;;;;;;;;409.60;1280.00;;;;;;5074273;28;19908;-77
2023/03/13 11:48:07;;;;;;;;;;;409.70;1228.80;;;;;;5067827;28;20361;-78
2023/03/13 11:50:45;;;;;;;;;;;384.80;1203.20;;;;;;5069488;28;19931;-79
2023/03/13 11:53:29;;;;;;;;;;;384.70;1203.20;;;;;;5062265;28;19904;-79
2023/03/13 11:56:04;;;;;;;;;;;384.60;1228.80;;;;;;5074328;28;19904;-82
2023/03/13 11:58:30;;;;;;;;;;;384.60;1254.40;;;;;;5090183;28;20344;-82
2023/03/13 12:01:10;;;;;;;;;;;409.70;1280.00;;;;;;5073215;28;20026;-80
2023/03/13 12:03:36;;;;;;;;;;;409.80;1254.40;;;;;;5073108;28;19937;-79
2023/03/13 12:06:03;;;;;;;;;;;409.90;1228.80;;;;;;5074462;28;19908;-83
2023/03/13 12:08:33;;;;;;;;;;;410.10;1177.60;;;;;;5074084;28;19921;-77
2023/03/13 12:10:58;;;;;;;;;;;410.40;1152.00;;;;;;5072568;28;19911;-77
2023/03/13 12:13:27;;;;;;;;;;;410.50;1100.80;;;;;;5072897;28;19908;-78
2023/03/13 12:15:55;;;;;;;;;;;410.30;1100.80;;;;;;5072463;28;19916;-79
2023/03/13 12:18:29;;;;;;;;;;;410.10;1126.40;;;;;;5089201;28;20419;-77
2023/03/13 12:21:02;;;;;;;;;;;409.90;1152.00;;;;;;5072103;28;20003;-77
2023/03/13 12:23:33;;;;;;;;;;;409.90;1177.60;;;;;;5071954;28;19908;-77
2023/03/13 12:26:01;;;;;;;;;;;409.80;1177.60;;;;;;5060481;28;19908;-77
2023/03/13 12:28:27;;;;;;;;;;;409.60;1126.40;;;;;;5052909;28;19912;-79
2023/03/13 12:31:12;;;;;;;;;;;409.80;1152.00;;;;;;5070054;28;19962;-80
2023/03/13 12:33:52;;;;;;;;;;;409.70;1152.00;;;;;;5057737;28;19924;-82
2023/03/13 12:36:18;;;;;;;;;;;409.90;1152.00;;;;;;5057657;28;19912;-79
2023/03/13 12:38:54;;;;;;;;;;;410.10;1126.40;;;;;;5057597;28;19951;-78
2023/03/13 12:41:29;;;;;;;;;;;410.30;1126.40;;;;;;5076279;28;19908;-77
2023/03/13 12:43:54;;;;;;;;;;;410.40;1152.00;;;;;;5075148;28;19908;-79
2023/03/13 12:46:29;;;;;;;;;;;410.50;1100.80;;;;;;5075822;28;19915;-78
2023/03/13 12:49:01;;;;;;;;;;;410.50;1100.80;;;;;;5063945;28;19909;-78
2023/03/13 12:51:26;;;;;;;;;;;435.40;1075.20;;;;;;5074711;28;19911;-77
2023/03/13 12:54:02;;;;;;;;;;;435.40;1075.20;;;;;;5057142;28;19991;-77
2023/03/13 12:56:34;;;;;;;;;;;435.40;1075.20;;;;;;5084259;28;19908;-79
2023/03/13 12:59:07;;;;;;;;;;;435.30;1075.20;;;;;;5057674;28;19977;-78
2023/03/13 13:01:35;;;;;;;;;;;435.20;1075.20;;;;;;5070866;28;19904;-77
2023/03/13 13:04:05;;;;;;;;;;;435.40;1075.20;;;;;;5068163;28;20361;-79
2023/03/13 13:06:51;;;;;;;;;;;435.60;1049.60;;;;;;5058619;28;19908;-80
2023/03/13 13:09:19;;;;;;;;;;;435.60;1024.00;;;;;;5075724;28;19909;-77
2023/03/13 13:11:46;;;;;;;;;;;435.50;1049.60;;;;;;5075549;28;19948;-78
2023/03/13 13:14:15;;;;;;;;;;;435.40;1049.60;;;;;;5072080;28;19974;-82
2023/03/13 13:17:02;;;;;;;;;;;435.50;1049.60;;;;;;5059106;28;19919;-80
2023/03/13 13:19:42;;;;;;;;;;;435.50;1024.00;;;;;;4994800;28;20355;-78
2023/03/13 13:22:37;;;;;;;;;;;435.50;1049.60;;;;;;5003505;28;19955;-79
2023/03/13 13:25:09;;;;;;;;;;;435.30;1024.00;;;;;;4937150;29;19907;-80
2023/03/13 13:27:34;;;;;;;;;;;435.50;1024.00;;;;;;4937547;29;20437;-77
2023/03/13 13:30:03;;;;;;;;;;;435.50;998.40;;;;;;4937022;29;19914;-79
2023/03/13 13:32:33;;;;;;;;;;;435.40;1024.00;;;;;;4937591;29;19946;-79
2023/03/13 13:35:01;;;;;;;;;;;435.30;1049.60;;;;;;4936940;29;20005;-79
2023/03/13 13:37:30;;;;;;;;;;;435.20;1049.60;;;;;;4937209;29;19906;-79
2023/03/13 13:40:09;;;;;;;;;;;410.50;1049.60;;;;;;4937600;29;20026;-80
2023/03/13 13:42:40;;;;;;;;;;;435.20;1049.60;;;;;;4936436;29;19930;-79
2023/03/13 13:45:15;;;;;;;;;;;435.20;1049.60;;;;;;4921385;29;19915;-79
2023/03/13 13:47:44;;;;;;;;;;;435.20;1049.60;;;;;;4936859;29;19914;-77